createdAt,value
2023-01-27T00:01:24.132Z,100725.60
2023-01-27T00:03:58.083Z,100721.00
2023-01-27T00:06:31.990Z,100714.80
2023-01-27T00:09:05.745Z,100721.40
2023-01-27T00:11:57.464Z,100715.00
2023-01-27T00:14:31.936Z,100716.80
2023-01-27T00:17:05.863Z,100711.80
2023-01-27T00:19:39.681Z,100716.40
2023-01-27T00:22:27.789Z,100723.20
2023-01-27T00:25:02.169Z,100717.80
2023-01-27T00:27:36.698Z,100716.40
2023-01-27T00:30:14.232Z,100714.00
2023-01-27T00:33:05.989Z,100720.60
2023-01-27T00:35:42.306Z,100722.00
2023-01-27T00:38:16.212Z,100719.80
2023-01-27T00:41:10.029Z,100725.00
2023-01-27T00:43:44.021Z,100726.80
2023-01-27T00:46:20.672Z,100727.20
2023-01-27T00:48:55.490Z,100729.00
2023-01-27T00:51:29.384Z,100730.80
2023-01-27T00:54:04.208Z,100726.60
2023-01-27T00:56:38.272Z,100730.20
2023-01-27T00:59:12.197Z,100732.80
2023-01-27T01:01:46.061Z,100736.60
2023-01-27T01:04:20.038Z,100735.00
2023-01-27T01:06:53.816Z,100742.60
2023-01-27T01:09:27.685Z,100739.80
2023-01-27T01:12:01.570Z,100739.60
2023-01-27T01:14:35.361Z,100736.20
2023-01-27T01:17:09.477Z,100734.40
2023-01-27T01:19:43.294Z,100739.60
2023-01-27T01:22:17.503Z,100741.60
2023-01-27T01:24:51.605Z,100739.40
2023-01-27T01:27:25.726Z,100737.40
2023-01-27T01:30:01.188Z,100730.60
2023-01-27T01:32:35.050Z,100726.80
2023-01-27T01:35:10.817Z,100726.20
2023-01-27T01:37:46.722Z,100723.00
2023-01-27T01:40:22.234Z,100725.00
2023-01-27T01:43:04.023Z,100720.60
2023-01-27T01:45:59.839Z,100721.40
2023-01-27T01:48:42.628Z,100716.40
2023-01-27T01:51:21.718Z,100726.60
2023-01-27T01:54:02.516Z,100722.60
2023-01-27T01:56:43.304Z,100722.00
2023-01-27T01:59:24.847Z,100728.40
2023-01-27T02:02:08.178Z,100721.60
2023-01-27T02:04:52.132Z,100723.20
2023-01-27T02:07:35.093Z,100726.60
2023-01-27T02:10:12.002Z,100733.40
2023-01-27T02:12:45.989Z,100737.80
2023-01-27T02:15:21.486Z,100734.20
2023-01-27T02:17:55.444Z,100732.80
2023-01-27T02:20:39.689Z,100730.20
2023-01-27T02:23:27.959Z,100731.40
2023-01-27T02:26:09.741Z,100738.00
2023-01-27T02:28:43.529Z,100735.00
2023-01-27T02:31:17.388Z,100739.00
2023-01-27T02:33:51.784Z,100733.00
2023-01-27T02:36:25.996Z,100734.20
2023-01-27T02:39:02.885Z,100730.20
2023-01-27T02:41:41.834Z,100739.00
2023-01-27T02:44:17.342Z,100736.20
2023-01-27T02:46:52.043Z,100732.80
2023-01-27T02:49:25.872Z,100735.40
2023-01-27T02:51:59.655Z,100735.20
2023-01-27T02:54:34.802Z,100735.20
2023-01-27T02:57:08.995Z,100725.60
2023-01-27T02:59:52.114Z,100735.40
2023-01-27T03:02:30.661Z,100738.80
2023-01-27T03:05:04.784Z,100732.80
2023-01-27T03:07:38.814Z,100736.80
2023-01-27T03:10:15.471Z,100733.40
2023-01-27T03:12:49.992Z,100735.60
2023-01-27T03:15:41.550Z,100733.80
2023-01-27T03:18:17.373Z,100735.00
2023-01-27T03:20:52.400Z,100740.60
2023-01-27T03:23:26.289Z,100738.00
2023-01-27T03:26:00.337Z,100741.40
2023-01-27T03:28:33.947Z,100744.20
2023-01-27T03:31:19.966Z,100742.80
2023-01-27T03:34:07.525Z,100743.60
2023-01-27T03:37:06.007Z,100745.80
2023-01-27T03:39:57.890Z,100743.40
2023-01-27T03:42:49.266Z,100737.40
2023-01-27T03:45:40.597Z,100738.00
2023-01-27T03:48:14.900Z,100733.60
2023-01-27T03:50:53.777Z,100735.20
2023-01-27T03:53:28.188Z,100739.00
2023-01-27T03:56:02.082Z,100737.20
2023-01-27T03:58:38.525Z,100735.00
2023-01-27T04:01:19.064Z,100738.80
2023-01-27T04:04:11.524Z,100737.20
2023-01-27T04:07:00.944Z,100735.80
2023-01-27T04:09:37.981Z,100729.60
2023-01-27T04:12:12.591Z,100729.20
2023-01-27T04:14:46.913Z,100729.00
2023-01-27T04:17:22.391Z,100730.20
2023-01-27T04:19:56.237Z,100724.00
2023-01-27T04:22:30.485Z,100724.40
2023-01-27T04:25:04.566Z,100730.80
2023-01-27T04:27:38.609Z,100731.40
2023-01-27T04:30:16.038Z,100726.60
2023-01-27T04:32:49.884Z,100726.40
2023-01-27T04:35:27.848Z,100725.00
2023-01-27T04:38:07.773Z,100730.80
2023-01-27T04:40:41.583Z,100727.40
2023-01-27T04:43:15.387Z,100725.60
2023-01-27T04:45:49.665Z,100726.60
2023-01-27T04:48:23.399Z,100730.00
2023-01-27T04:50:57.297Z,100733.80
2023-01-27T04:53:31.003Z,100732.00
2023-01-27T04:56:22.012Z,100726.00
2023-01-27T04:58:56.347Z,100726.00
2023-01-27T05:01:30.871Z,100734.60
2023-01-27T05:04:05.534Z,100737.60
2023-01-27T05:06:39.425Z,100733.00
2023-01-27T05:09:13.330Z,100742.20
2023-01-27T05:11:47.304Z,100741.60
2023-01-27T05:14:23.592Z,100743.80
2023-01-27T05:16:57.409Z,100750.20
2023-01-27T05:19:31.722Z,100754.00
2023-01-27T05:22:05.809Z,100758.40
2023-01-27T05:24:39.937Z,100765.00
2023-01-27T05:27:13.777Z,100759.00
2023-01-27T05:29:47.512Z,100766.60
2023-01-27T05:32:24.331Z,100771.80
2023-01-27T05:34:58.780Z,100765.00
2023-01-27T05:37:32.532Z,100769.00
2023-01-27T05:40:07.618Z,100771.40
2023-01-27T05:42:41.427Z,100768.20
2023-01-27T05:45:16.599Z,100773.00
2023-01-27T05:47:53.794Z,100772.40
2023-01-27T05:50:27.594Z,100773.20
2023-01-27T05:53:01.456Z,100774.60
2023-01-27T05:55:35.236Z,100773.80
2023-01-27T05:58:09.125Z,100783.80
2023-01-27T06:00:43.113Z,100782.60
2023-01-27T06:03:17.441Z,100789.60
2023-01-27T06:06:00.881Z,100782.40
2023-01-27T06:08:35.502Z,100784.20
2023-01-27T06:11:11.079Z,100782.60
2023-01-27T06:13:45.368Z,100788.80
2023-01-27T06:16:22.817Z,100786.80
2023-01-27T06:18:57.184Z,100792.80
2023-01-27T06:21:31.198Z,100794.20
2023-01-27T06:24:05.620Z,100794.00
2023-01-27T06:26:40.029Z,100798.60
2023-01-27T06:29:13.897Z,100801.60
2023-01-27T06:31:47.781Z,100801.40
2023-01-27T06:34:22.072Z,100805.00
2023-01-27T06:36:57.388Z,100804.00
2023-01-27T06:39:31.257Z,100809.60
2023-01-27T06:42:07.785Z,100816.60
2023-01-27T06:44:41.521Z,100814.00
2023-01-27T06:47:15.288Z,100818.80
2023-01-27T06:49:48.979Z,100816.60
2023-01-27T06:52:24.033Z,100813.00
2023-01-27T06:54:58.145Z,100820.20
2023-01-27T06:57:32.472Z,100815.40
2023-01-27T07:00:10.649Z,100812.80
2023-01-27T07:02:44.377Z,100816.40
2023-01-27T07:05:21.967Z,100817.40
2023-01-27T07:07:55.728Z,100819.40
2023-01-27T07:10:29.699Z,100816.40
2023-01-27T07:13:14.817Z,100816.20
2023-01-27T07:15:48.911Z,100813.60
2023-01-27T07:18:22.709Z,100815.20
2023-01-27T07:20:56.660Z,100820.20
2023-01-27T07:23:30.380Z,100821.60
2023-01-27T07:26:15.832Z,100820.00
2023-01-27T07:29:00.141Z,100820.20
2023-01-27T07:31:34.534Z,100820.60
2023-01-27T07:34:08.585Z,100822.60
2023-01-27T07:36:42.566Z,100817.20
2023-01-27T07:39:16.597Z,100824.60
2023-01-27T07:41:52.458Z,100824.40
2023-01-27T07:44:28.555Z,100831.40
2023-01-27T07:47:04.003Z,100837.20
2023-01-27T07:49:38.014Z,100835.40
2023-01-27T07:52:12.015Z,100834.60
2023-01-27T07:54:46.130Z,100835.60
2023-01-27T07:57:20.214Z,100836.60
2023-01-27T07:59:56.165Z,100833.60
2023-01-27T08:02:31.798Z,100831.60
2023-01-27T08:05:06.206Z,100834.60
2023-01-27T08:07:40.102Z,100829.40
2023-01-27T08:10:17.778Z,100828.60
2023-01-27T08:12:51.819Z,100832.80
2023-01-27T08:15:25.896Z,100837.40
2023-01-27T08:18:02.435Z,100841.20
2023-01-27T08:20:36.862Z,100844.40
2023-01-27T08:23:11.779Z,100844.80
2023-01-27T08:25:52.081Z,100849.80
2023-01-27T08:28:28.126Z,100848.60
2023-01-27T08:31:09.657Z,100846.40
2023-01-27T08:33:45.284Z,100847.80
2023-01-27T08:36:24.413Z,100853.80
2023-01-27T08:38:59.162Z,100855.20
2023-01-27T08:41:33.286Z,100848.40
2023-01-27T08:44:08.205Z,100847.40
2023-01-27T08:46:44.777Z,100852.60
2023-01-27T08:49:18.614Z,100856.40
2023-01-27T08:51:52.602Z,100860.40
2023-01-27T08:54:26.678Z,100863.40
2023-01-27T08:57:00.550Z,100855.80
2023-01-27T08:59:35.405Z,100854.20
2023-01-27T09:02:10.698Z,100855.60
2023-01-27T09:04:45.357Z,100857.80
2023-01-27T09:07:19.536Z,100860.40
2023-01-27T09:10:04.172Z,100864.00
2023-01-27T09:12:47.111Z,100863.40
2023-01-27T09:15:21.091Z,100868.00
2023-01-27T09:17:54.906Z,100874.60
2023-01-27T09:20:28.955Z,100878.00
2023-01-27T09:23:03.104Z,100874.00
2023-01-27T09:25:37.166Z,100882.80
2023-01-27T09:28:17.146Z,100888.40
2023-01-27T09:30:52.078Z,100891.20
2023-01-27T09:33:26.495Z,100893.20
2023-01-27T09:36:06.529Z,100898.00
2023-01-27T09:38:48.647Z,100892.00
2023-01-27T09:41:51.901Z,100901.80
2023-01-27T09:45:01.898Z,100896.00
2023-01-27T09:48:04.151Z,100903.40
2023-01-27T09:50:47.300Z,100901.00
2023-01-27T09:54:09.558Z,100905.40
2023-01-27T09:57:00.014Z,100905.20
2023-01-27T10:00:00.267Z,100903.40
2023-01-27T10:03:04.025Z,100904.60
2023-01-27T10:06:20.002Z,100902.00
2023-01-27T10:09:23.014Z,100893.80
2023-01-27T10:12:10.121Z,100894.40
2023-01-27T10:14:56.097Z,100892.00
2023-01-27T10:34:30.279Z,100898.40
2023-01-27T10:37:22.143Z,100900.60
2023-01-27T10:40:06.160Z,100903.20
2023-01-27T10:42:49.324Z,100893.00
2023-01-27T10:45:33.098Z,100894.40
2023-01-27T10:48:35.977Z,100897.20
2023-01-27T10:51:16.121Z,100903.60
2023-01-27T10:53:58.628Z,100896.00
2023-01-27T10:56:41.779Z,100901.00
2023-01-27T10:59:24.834Z,100903.20
2023-01-27T11:02:06.893Z,100902.20
2023-01-27T11:04:46.014Z,100905.00
2023-01-27T11:07:23.747Z,100907.00
2023-01-27T11:10:02.256Z,100906.40
2023-01-27T11:12:40.588Z,100906.20
2023-01-27T11:15:26.532Z,100904.40
2023-01-27T11:18:11.740Z,100904.40
2023-01-27T11:20:54.183Z,100894.80
2023-01-27T11:23:35.725Z,100899.00
2023-01-27T11:26:23.441Z,100898.00
2023-01-27T11:29:11.321Z,100898.80
2023-01-27T11:31:59.877Z,100898.00
2023-01-27T11:34:42.097Z,100903.40
2023-01-27T11:37:24.593Z,100896.20
2023-01-27T11:39:59.336Z,100894.40
2023-01-27T11:42:37.036Z,100898.40
2023-01-27T11:45:18.330Z,100895.40
2023-01-27T11:47:58.368Z,100898.40
2023-01-27T11:50:37.085Z,100901.00
2023-01-27T11:53:25.502Z,100903.40
2023-01-27T11:56:05.998Z,100904.80
2023-01-27T11:58:48.537Z,100895.60
2023-01-27T12:01:26.303Z,100905.60
2023-01-27T12:04:09.633Z,100904.40
2023-01-27T12:06:51.763Z,100907.60
2023-01-27T12:09:41.698Z,100902.60
2023-01-27T12:12:25.869Z,100900.80
2023-01-27T12:15:03.264Z,100897.80
2023-01-27T12:17:42.810Z,100894.80
2023-01-27T12:20:34.364Z,100900.60
2023-01-27T12:23:21.202Z,100891.00
2023-01-27T12:25:59.824Z,100897.60
2023-01-27T12:28:38.460Z,100889.20
2023-01-27T12:31:22.365Z,100886.40
2023-01-27T12:34:07.043Z,100889.80
2023-01-27T12:36:45.393Z,100882.60
2023-01-27T12:39:47.161Z,100881.80
2023-01-27T12:42:42.938Z,100891.40
2023-01-27T12:45:35.155Z,100889.80
2023-01-27T12:48:22.852Z,100880.00
2023-01-27T12:51:15.743Z,100879.20
2023-01-27T12:53:51.469Z,100886.00
2023-01-27T12:56:27.342Z,100890.00
2023-01-27T12:59:06.799Z,100890.20
2023-01-27T13:01:44.081Z,100887.80
2023-01-27T13:04:22.430Z,100890.60
2023-01-27T13:07:08.178Z,100890.80
2023-01-27T13:09:51.713Z,100891.60
2023-01-27T13:12:29.687Z,100896.60
2023-01-27T13:15:17.575Z,100900.60
2023-01-27T13:17:53.272Z,100896.80
2023-01-27T13:20:35.997Z,100901.20
2023-01-27T13:23:18.983Z,100903.40
2023-01-27T13:26:02.296Z,100902.20
2023-01-27T13:28:52.040Z,100908.80
2023-01-27T13:31:43.419Z,100911.20
2023-01-27T13:34:29.759Z,100920.40
2023-01-27T13:37:11.021Z,100921.60
2023-01-27T13:40:00.618Z,100918.40
2023-01-27T13:42:42.258Z,100925.80
2023-01-27T13:45:23.955Z,100926.00
2023-01-27T13:48:03.625Z,100928.00
2023-01-27T13:50:46.371Z,100937.60
2023-01-27T13:53:24.625Z,100943.60
2023-01-27T13:56:23.441Z,100945.20
2023-01-27T13:59:13.112Z,100948.40
2023-01-27T14:02:02.254Z,100949.00
2023-01-27T14:04:57.217Z,100946.20
2023-01-27T14:07:42.107Z,100956.20
2023-01-27T14:10:33.945Z,100948.40
2023-01-27T14:13:32.161Z,100959.80
2023-01-27T14:16:18.630Z,100966.80
2023-01-27T14:19:00.873Z,100963.20
2023-01-27T14:21:52.394Z,100964.80
2023-01-27T14:24:41.513Z,100960.20
2023-01-27T14:27:24.335Z,100973.80
2023-01-27T14:30:11.169Z,100965.20
2023-01-27T14:32:59.112Z,100968.40
2023-01-27T14:35:44.279Z,100968.20
2023-01-27T14:38:33.031Z,100973.40
2023-01-27T14:41:25.132Z,100971.20
2023-01-27T14:44:14.612Z,100970.60
2023-01-27T14:47:12.332Z,100972.00
2023-01-27T14:50:06.597Z,100971.80
2023-01-27T14:52:50.718Z,100967.00
2023-01-27T14:55:43.622Z,100965.00
2023-01-27T14:58:47.901Z,100961.80
2023-01-27T15:01:35.509Z,100960.20
2023-01-27T15:04:45.096Z,100964.20
2023-01-27T15:07:33.172Z,100961.20
2023-01-27T15:10:26.021Z,100963.80
2023-01-27T15:13:45.346Z,100969.00
2023-01-27T15:16:52.469Z,100969.60
2023-01-27T15:19:53.379Z,100968.20
2023-01-27T15:22:56.218Z,100973.20
2023-01-27T15:25:38.151Z,100975.00
2023-01-27T15:28:18.742Z,100976.60
2023-01-27T15:31:28.285Z,100981.20
2023-01-27T15:34:24.380Z,100983.60
2023-01-27T15:37:20.988Z,100983.20
2023-01-27T15:40:16.770Z,100985.00
2023-01-27T15:43:06.749Z,100986.00
2023-01-27T15:45:48.262Z,100991.60
2023-01-27T15:48:27.397Z,100990.20
2023-01-27T15:51:08.312Z,100989.80
2023-01-27T15:53:49.404Z,100986.60
2023-01-27T15:56:40.101Z,100987.80
2023-01-27T15:59:21.691Z,100993.00
2023-01-27T16:02:15.107Z,100996.40
2023-01-27T16:04:56.901Z,100998.60
2023-01-27T16:07:36.210Z,100997.00
2023-01-27T16:10:20.722Z,100996.00
2023-01-27T16:13:22.576Z,100998.00
2023-01-27T16:16:33.993Z,100995.80
2023-01-27T16:19:26.267Z,100997.60
2023-01-27T16:22:05.172Z,101003.40
2023-01-27T16:24:47.323Z,100995.40
2023-01-27T16:27:39.328Z,100996.60
2023-01-27T16:30:22.099Z,100995.60
2023-01-27T16:33:06.397Z,101001.20
2023-01-27T16:35:49.014Z,101001.60
2023-01-27T16:38:30.400Z,100998.60
2023-01-27T16:41:11.010Z,101001.60
2023-01-27T16:43:53.027Z,101007.80
2023-01-27T16:46:36.885Z,101007.00
2023-01-27T16:49:20.583Z,101006.40
2023-01-27T16:52:01.034Z,101011.20
2023-01-27T16:54:39.392Z,101016.80
2023-01-27T16:57:43.742Z,101018.60
2023-01-27T17:00:27.021Z,101016.80
2023-01-27T17:03:09.972Z,101014.20
2023-01-27T17:05:52.006Z,101013.40
2023-01-27T17:08:35.462Z,101015.80
2023-01-27T17:11:25.387Z,101007.60
2023-01-27T17:14:04.538Z,101011.60
2023-01-27T17:16:43.053Z,101013.80
2023-01-27T17:19:24.216Z,101009.40
2023-01-27T17:22:02.006Z,101014.40
2023-01-27T17:24:40.819Z,101012.80
2023-01-27T17:27:27.659Z,101007.00
2023-01-27T17:30:22.792Z,101014.20
2023-01-27T17:33:01.789Z,101006.60
2023-01-27T17:35:39.458Z,101021.20
2023-01-27T17:38:20.035Z,101013.00
2023-01-27T17:40:57.313Z,101024.60
2023-01-27T17:43:37.136Z,101022.60
2023-01-27T17:46:19.545Z,101026.40
2023-01-27T17:48:57.655Z,101031.00
2023-01-27T17:51:40.588Z,101031.20
2023-01-27T17:54:27.085Z,101030.80
2023-01-27T17:57:09.386Z,101044.20
2023-01-27T17:59:47.684Z,101042.00
2023-01-27T18:02:29.037Z,101049.00
2023-01-27T18:05:07.216Z,101049.00
2023-01-27T18:07:40.920Z,101051.20
2023-01-27T18:10:37.101Z,101056.40
2023-01-27T18:13:38.726Z,101059.40
2023-01-27T18:16:22.557Z,101054.40
2023-01-27T18:19:09.303Z,101049.60
2023-01-27T18:21:43.611Z,101058.00
2023-01-27T18:24:24.782Z,101058.60
2023-01-27T18:26:58.744Z,101053.80
2023-01-27T18:29:40.197Z,101058.80
2023-01-27T18:32:23.808Z,101060.40
2023-01-27T18:35:00.583Z,101059.80
2023-01-27T18:37:37.655Z,101060.00
2023-01-27T18:40:31.459Z,101063.40
2023-01-27T18:43:07.293Z,101063.80
2023-01-27T18:45:42.290Z,101068.00
2023-01-27T18:48:19.062Z,101069.20
2023-01-27T18:50:52.923Z,101073.80
2023-01-27T18:53:26.896Z,101069.40
2023-01-27T18:56:02.197Z,101072.60
2023-01-27T18:58:36.210Z,101068.60
2023-01-27T19:01:19.597Z,101066.80
2023-01-27T19:03:57.375Z,101069.40
2023-01-27T19:06:31.573Z,101067.40
2023-01-27T19:09:05.901Z,101069.60
2023-01-27T19:11:40.151Z,101069.80
2023-01-27T19:14:14.100Z,101072.40
2023-01-27T19:16:47.924Z,101073.80
2023-01-27T19:19:21.842Z,101074.80
2023-01-27T19:21:55.629Z,101082.40
2023-01-27T19:24:29.709Z,101084.00
2023-01-27T19:27:04.379Z,101079.20
2023-01-27T19:29:38.443Z,101079.60
2023-01-27T19:32:16.221Z,101080.40
2023-01-27T19:34:52.703Z,101073.60
2023-01-27T19:37:27.023Z,101082.00
2023-01-27T19:40:02.306Z,101090.00
2023-01-27T19:42:36.562Z,101090.60
2023-01-27T19:45:12.791Z,101091.80
2023-01-27T19:47:49.186Z,101089.60
2023-01-27T19:50:30.336Z,101096.80
2023-01-27T19:53:04.864Z,101107.00
2023-01-27T19:55:39.343Z,101106.40
2023-01-27T19:58:23.682Z,101103.20
2023-01-27T20:00:59.281Z,101102.00
2023-01-27T20:03:33.516Z,101102.00
2023-01-27T20:06:16.233Z,101103.60
2023-01-27T20:08:52.261Z,101109.00
2023-01-27T20:11:37.461Z,101107.20
2023-01-27T20:14:15.352Z,101116.40
2023-01-27T20:16:49.982Z,101120.00
2023-01-27T20:19:24.145Z,101126.00
2023-01-27T20:22:01.163Z,101125.80
2023-01-27T20:24:36.449Z,101128.40
2023-01-27T20:27:11.034Z,101132.80
2023-01-27T20:29:46.749Z,101125.40
2023-01-27T20:32:24.260Z,101128.00
2023-01-27T20:34:59.509Z,101130.20
2023-01-27T20:37:34.527Z,101130.60
2023-01-27T20:40:13.358Z,101135.00
2023-01-27T20:42:48.088Z,101135.40
2023-01-27T20:45:23.691Z,101137.00
2023-01-27T20:47:58.917Z,101139.60
2023-01-27T20:50:33.390Z,101138.00
2023-01-27T20:53:08.946Z,101139.20
2023-01-27T20:55:43.383Z,101139.20
2023-01-27T20:58:17.821Z,101135.40
2023-01-27T21:00:52.007Z,101139.00
2023-01-27T21:03:26.083Z,101137.40
2023-01-27T21:06:00.296Z,101135.40
2023-01-27T21:08:34.665Z,101141.20
2023-01-27T21:11:13.427Z,101138.80
2023-01-27T21:13:48.264Z,101137.60
2023-01-27T21:16:22.857Z,101136.80
2023-01-27T21:18:57.002Z,101139.60
2023-01-27T21:21:32.696Z,101130.40
2023-01-27T21:24:07.764Z,101134.80
2023-01-27T21:26:42.266Z,101138.80
2023-01-27T21:29:17.099Z,101137.40
2023-01-27T21:31:51.244Z,101145.40
2023-01-27T21:34:25.945Z,101149.00
2023-01-27T21:37:00.131Z,101146.00
2023-01-27T21:39:34.161Z,101150.20
2023-01-27T21:42:27.488Z,101143.80
2023-01-27T21:45:15.334Z,101150.80
2023-01-27T21:47:49.771Z,101155.80
2023-01-27T21:50:24.894Z,101147.40
2023-01-27T21:52:58.833Z,101144.20
2023-01-27T21:55:34.157Z,101150.20
2023-01-27T21:58:08.012Z,101152.00
2023-01-27T22:00:42.140Z,101142.20
2023-01-27T22:03:16.207Z,101144.60
2023-01-27T22:05:50.054Z,101137.00
2023-01-27T22:08:23.835Z,101137.80
2023-01-27T22:10:57.728Z,101138.80
2023-01-27T22:13:31.751Z,101134.40
2023-01-27T22:16:07.588Z,101128.60
2023-01-27T22:18:41.744Z,101126.20
2023-01-27T22:21:15.867Z,101129.80
2023-01-27T22:23:49.658Z,101128.40
2023-01-27T22:26:23.339Z,101124.20
2023-01-27T22:28:57.281Z,101125.80
2023-01-27T22:31:31.244Z,101123.80
2023-01-27T22:34:05.032Z,101127.40
2023-01-27T22:36:39.089Z,101121.60
2023-01-27T22:39:13.212Z,101121.40
2023-01-27T22:41:47.396Z,101120.00
2023-01-27T22:44:21.740Z,101116.40
2023-01-27T22:46:55.593Z,101122.40
2023-01-27T22:49:29.745Z,101124.20
2023-01-27T22:52:03.568Z,101117.80
2023-01-27T22:54:37.981Z,101117.40
2023-01-27T22:57:11.843Z,101114.80
2023-01-27T22:59:45.529Z,101114.00
2023-01-27T23:02:21.188Z,101116.00
2023-01-27T23:16:00.021Z,101112.40
2023-01-27T23:18:34.078Z,101110.20
2023-01-27T23:21:09.910Z,101109.80
2023-01-27T23:23:43.640Z,101109.00
2023-01-27T23:26:18.204Z,101110.80
2023-01-27T23:28:51.867Z,101113.20
2023-01-27T23:31:25.842Z,101112.00
2023-01-27T23:34:00.033Z,101115.60
2023-01-27T23:36:33.807Z,101110.20
2023-01-27T23:39:07.766Z,101109.20
2023-01-27T23:41:41.897Z,101106.00
2023-01-27T23:44:17.255Z,101110.20
2023-01-27T23:46:51.048Z,101107.00
2023-01-27T23:49:24.844Z,101104.20
2023-01-27T23:51:58.547Z,101103.80
2023-01-27T23:54:32.774Z,101095.60
2023-01-27T23:57:06.982Z,101102.60
2023-01-27T23:59:41.357Z,101104.60
